Time;durP1;ratioP1;P1;durP2;ratioP2;P2;SDS_P1;SDS_P2;PMS_P1;PMS_P2;Temp;Humidity;BMP_temperature;BMP_pressure;BME280_temperature;BME280_humidity;BME280_pressure;Samples;Min_cycle;Max_cycle;Signal;HPM_P1;HPM_P2
2022/09/22 00:01:35;;;;;;;3.53;2.53;;;14.40;70.80;;;;;;5093485;28;20058;-69
2022/09/22 00:04:06;;;;;;;2.38;2.17;;;14.40;70.80;;;;;;5092157;28;20028;-68
2022/09/22 00:06:46;;;;;;;2.47;2.28;;;14.40;70.80;;;;;;5092259;28;20036;-69
2022/09/22 00:09:15;;;;;;;4.30;2.88;;;14.40;70.90;;;;;;5093164;28;20024;-70
2022/09/22 00:11:43;;;;;;;3.92;2.80;;;14.40;70.80;;;;;;5092125;28;20371;-69
2022/09/22 00:14:15;;;;;;;3.13;2.80;;;14.40;70.80;;;;;;5093500;28;20386;-69
2022/09/22 00:16:47;;;;;;;3.08;2.78;;;14.40;70.90;;;;;;5092147;28;20027;-69
2022/09/22 00:19:16;;;;;;;2.70;2.50;;;14.40;70.90;;;;;;5091992;28;20030;-70
2022/09/22 00:21:42;;;;;;;2.97;2.60;;;14.40;70.90;;;;;;5092252;28;20031;-70
2022/09/22 00:24:08;;;;;;;3.30;2.78;;;14.30;70.90;;;;;;5096751;28;20024;-69
2022/09/22 00:26:35;;;;;;;3.35;2.72;;;14.40;71.10;;;;;;5097080;28;20458;-70
2022/09/22 00:29:01;;;;;;;3.85;3.15;;;14.30;71.10;;;;;;5096462;28;20020;-70
2022/09/22 00:31:27;;;;;;;2.83;2.35;;;14.30;71.20;;;;;;5096710;28;20359;-70
2022/09/22 00:33:54;;;;;;;3.33;2.72;;;14.40;71.20;;;;;;5078366;28;20077;-73
2022/09/22 00:36:24;;;;;;;4.40;3.20;;;14.40;71.20;;;;;;5096558;28;20401;-69
2022/09/22 00:38:51;;;;;;;3.20;2.75;;;14.40;71.30;;;;;;5095310;28;20423;-68
2022/09/22 00:41:23;;;;;;;3.08;2.72;;;14.40;71.20;;;;;;5096611;28;20024;-69
2022/09/22 00:44:10;;;;;;;2.60;2.40;;;14.30;71.70;;;;;;5094945;28;20044;-70
2022/09/22 00:46:38;;;;;;;2.67;2.47;;;14.30;71.20;;;;;;5096480;28;20483;-70
2022/09/22 00:49:07;;;;;;;3.33;2.80;;;14.40;71.20;;;;;;5096141;28;20442;-69
2022/09/22 00:51:36;;;;;;;3.05;2.70;;;14.40;71.20;;;;;;5096418;28;20024;-70
2022/09/22 00:54:06;;;;;;;4.35;2.70;;;14.40;71.20;;;;;;5095006;28;20036;-69
2022/09/22 00:56:51;;;;;;;2.88;2.53;;;14.40;71.30;;;;;;5095013;28;20441;-70
2022/09/22 00:59:18;;;;;;;;;;;14.40;71.30;;;;;;5095446;28;20031;-70
2022/09/22 01:01:44;;;;;;;2.53;2.33;;;14.40;71.70;;;;;;5093998;28;20430;-70
2022/09/22 01:04:11;;;;;;;2.60;2.40;;;14.40;71.20;;;;;;5096087;28;20032;-70
2022/09/22 01:06:38;;;;;;;3.30;2.50;;;14.40;71.20;;;;;;5095984;28;20024;-69
2022/09/22 01:09:05;;;;;;;2.85;2.60;;;14.40;71.20;;;;;;5094686;28;20115;-69
2022/09/22 01:11:32;;;;;;;2.55;2.35;;;14.40;71.20;;;;;;5096153;28;20052;-69
2022/09/22 01:14:27;;;;;;;2.78;2.33;;;14.40;71.20;;;;;;5094450;28;20039;-69
2022/09/22 01:17:14;;;;;;;2.80;2.50;;;14.40;71.40;;;;;;5007240;28;20500;-72
2022/09/22 01:19:40;;;;;;;2.90;2.60;;;14.40;71.40;;;;;;5094460;28;20035;-68
2022/09/22 01:22:24;;;;;;;2.60;2.40;;;14.40;71.20;;;;;;5095603;28;20024;-69
2022/09/22 01:25:31;;;;;;;3.38;2.85;;;14.40;71.20;;;;;;5094878;28;20028;-69
2022/09/22 01:28:28;;;;;;;2.75;2.45;;;14.40;71.40;;;;;;5084688;28;20044;-69
2022/09/22 01:30:59;;;;;;;2.45;2.25;;;14.40;71.40;;;;;;5095364;28;20028;-69
2022/09/22 01:33:42;;;;;;;2.92;2.60;;;14.40;71.20;;;;;;5094867;28;20047;-70
2022/09/22 01:36:14;;;;;;;2.75;2.55;;;14.40;71.30;;;;;;5095695;28;20086;-70
2022/09/22 01:38:59;;;;;;;2.85;2.63;;;14.40;71.20;;;;;;5094414;28;20417;-70
2022/09/22 01:41:43;;;;;;;2.97;2.67;;;14.50;71.40;;;;;;5094752;28;20032;-70
2022/09/22 01:44:24;;;;;;;4.10;2.65;;;14.40;71.40;;;;;;5093848;28;20087;-70
2022/09/22 01:46:55;;;;;;;2.95;2.60;;;14.40;71.30;;;;;;5095431;28;20024;-69
2022/09/22 01:49:23;;;;;;;3.15;2.60;;;14.40;71.30;;;;;;5095154;28;20052;-69
2022/09/22 01:51:58;;;;;;;3.35;2.72;;;14.40;71.30;;;;;;5094053;28;20097;-70
2022/09/22 01:54:40;;;;;;;2.70;2.42;;;14.40;71.40;;;;;;5095356;28;20039;-69
2022/09/22 01:57:27;;;;;;;4.07;2.70;;;14.40;71.50;;;;;;5095605;28;20671;-69
2022/09/22 02:00:00;;;;;;;2.83;2.53;;;14.40;71.50;;;;;;5094846;28;20063;-70
2022/09/22 02:02:50;;;;;;;3.20;2.50;;;14.40;71.40;;;;;;5094239;28;20386;-69
2022/09/22 02:05:39;;;;;;;2.92;2.47;;;14.40;71.50;;;;;;5095304;28;20032;-69
2022/09/22 02:08:10;;;;;;;3.28;2.70;;;14.40;71.60;;;;;;5094896;28;20028;-69
2022/09/22 02:10:41;;;;;;;3.15;2.60;;;14.40;71.50;;;;;;5093421;28;20077;-67
2022/09/22 02:13:07;;;;;;;3.15;2.53;;;14.40;71.50;;;;;;5077470;28;20024;-70
2022/09/22 02:18:22;;;;;;;2.70;2.50;;;14.40;71.50;;;;;;5094875;28;20073;-69
2022/09/22 02:20:49;;;;;;;2.80;2.50;;;14.40;71.50;;;;;;5094647;28;20063;-69
2022/09/22 02:23:15;;;;;;;2.80;2.50;;;14.40;71.60;;;;;;5094454;28;20082;-70
2022/09/22 02:25:43;;;;;;;3.20;2.75;;;14.30;71.60;;;;;;5093589;28;20032;-69
2022/09/22 02:28:11;;;;;;;3.00;2.70;;;14.40;71.70;;;;;;5093438;28;20059;-70
2022/09/22 02:30:37;;;;;;;2.60;2.40;;;14.40;71.70;;;;;;5094449;28;20446;-70
2022/09/22 02:33:05;;;;;;;2.67;2.47;;;14.30;71.70;;;;;;5094479;28;20028;-70
2022/09/22 02:35:34;;;;;;;2.80;2.50;;;14.30;71.70;;;;;;5094010;28;20064;-70
2022/09/22 02:38:16;;;;;;;2.80;2.50;;;14.30;71.70;;;;;;5094493;28;20020;-70
2022/09/22 02:41:17;;;;;;;3.38;2.72;;;14.30;71.70;;;;;;5094224;28;20035;-70
2022/09/22 02:44:10;;;;;;;2.78;2.50;;;14.40;71.90;;;;;;5025481;28;20385;-69
2022/09/22 02:46:41;;;;;;;3.28;2.58;;;14.40;71.80;;;;;;5083706;28;20359;-70
2022/09/22 02:49:12;;;;;;;2.70;2.40;;;14.30;71.60;;;;;;5094522;28;20016;-68
2022/09/22 02:51:38;;;;;;;3.40;2.90;;;14.30;71.70;;;;;;5094143;28;20057;-66
2022/09/22 02:54:05;;;;;;;2.95;2.70;;;14.30;71.70;;;;;;5092617;28;20035;-69
2022/09/22 02:56:31;;;;;;;2.90;2.50;;;14.30;71.80;;;;;;5093240;28;20078;-68
2022/09/22 02:58:56;;;;;;;3.75;2.95;;;14.30;71.80;;;;;;5092713;28;20024;-69
2022/09/22 03:01:22;;;;;;;3.97;2.80;;;14.20;71.80;;;;;;5094455;28;20107;-68
2022/09/22 03:03:48;;;;;;;3.05;2.70;;;14.20;72.00;;;;;;5092666;28;20432;-69
2022/09/22 03:06:13;;;;;;;3.25;2.80;;;14.20;72.00;;;;;;5093881;28;20395;-69
2022/09/22 03:08:40;;;;;;;3.13;2.78;;;14.20;72.10;;;;;;5093679;28;20035;-69
2022/09/22 03:11:05;;;;;;;2.70;2.50;;;14.20;72.10;;;;;;5093915;28;20028;-68
2022/09/22 03:13:31;;;;;;;3.83;3.00;;;14.20;72.20;;;;;;5093720;28;20032;-71
2022/09/22 03:15:57;;;;;;;3.33;3.03;;;14.20;72.30;;;;;;5093598;28;20028;-71
2022/09/22 03:18:23;;;;;;;2.92;2.63;;;14.20;72.90;;;;;;5092710;28;20147;-71
2022/09/22 03:20:48;;;;;;;2.67;2.47;;;14.20;72.30;;;;;;5093979;28;20024;-72
2022/09/22 03:23:14;;;;;;;30.05;21.90;;;14.20;72.30;;;;;;5095011;28;20053;-69
2022/09/22 03:25:40;;;;;;;24.52;20.05;;;14.20;72.30;;;;;;5094619;28;20028;-69
2022/09/22 03:28:05;;;;;;;24.15;19.70;;;14.10;72.20;;;;;;5094880;28;20469;-71
2022/09/22 03:30:31;;;;;;;14.05;11.45;;;14.10;72.30;;;;;;5092524;28;20020;-71
2022/09/22 03:32:57;;;;;;;10.57;8.63;;;14.10;72.20;;;;;;5093634;28;20032;-69
2022/09/22 03:35:23;;;;;;;8.88;6.55;;;14.00;72.20;;;;;;5092332;28;20086;-70
2022/09/22 03:37:48;;;;;;;7.53;5.82;;;14.00;72.20;;;;;;5093590;28;20385;-71
2022/09/22 03:40:14;;;;;;;15.88;12.60;;;13.90;72.20;;;;;;5093010;28;20149;-73
2022/09/22 03:42:40;;;;;;;46.42;39.45;;;13.90;72.30;;;;;;5093574;28;20042;-72
2022/09/22 03:45:06;;;;;;;49.95;39.20;;;13.80;72.50;;;;;;5093637;28;20052;-71
2022/09/22 03:47:32;;;;;;;48.08;37.00;;;13.70;72.50;;;;;;5075615;28;20020;-71
2022/09/22 03:49:57;;;;;;;40.53;31.65;;;13.70;72.80;;;;;;5093618;28;20020;-67
2022/09/22 03:52:23;;;;;;;69.93;54.55;;;13.80;73.00;;;;;;5093506;28;20024;-68
2022/09/22 03:54:50;;;;;;;86.05;70.55;;;13.80;73.10;;;;;;5075364;28;20043;-72
2022/09/22 03:57:16;;;;;;;53.92;44.40;;;13.70;73.00;;;;;;5077000;28;20078;-68
2022/09/22 03:59:42;;;;;;;49.78;42.50;;;13.80;73.00;;;;;;5097709;28;20205;-69
2022/09/22 04:02:08;;;;;;;51.75;42.47;;;13.80;73.10;;;;;;5097285;28;20095;-71
2022/09/22 04:04:33;;;;;;;46.15;40.10;;;13.80;73.20;;;;;;5097010;28;20028;-69
2022/09/22 04:06:59;;;;;;;61.70;48.08;;;13.90;73.30;;;;;;5079060;28;20020;-69
2022/09/22 04:09:25;;;;;;;68.65;51.58;;;13.90;73.20;;;;;;5096947;28;20063;-66
2022/09/22 04:11:50;;;;;;;45.75;32.83;;;14.00;73.00;;;;;;5096931;28;20024;-69
2022/09/22 04:14:16;;;;;;;33.88;27.17;;;13.90;72.90;;;;;;5096948;28;20107;-68
2022/09/22 04:16:42;;;;;;;23.95;18.52;;;13.90;73.00;;;;;;5078910;28;20073;-68
2022/09/22 04:19:08;;;;;;;36.20;30.60;;;13.90;73.20;;;;;;5097098;28;20034;-68
2022/09/22 04:21:34;;;;;;;22.05;18.83;;;13.90;73.00;;;;;;5078537;28;20070;-68
2022/09/22 04:24:00;;;;;;;19.45;16.10;;;13.90;73.10;;;;;;5097208;28;20442;-66
2022/09/22 04:26:26;;;;;;;16.65;13.35;;;13.90;73.20;;;;;;5078603;28;20036;-67
2022/09/22 04:28:51;;;;;;;13.88;11.23;;;13.90;73.20;;;;;;5078567;28;20084;-67
2022/09/22 04:31:18;;;;;;;10.93;8.80;;;14.00;73.30;;;;;;5096792;28;20103;-66
2022/09/22 04:33:44;;;;;;;9.15;7.68;;;14.00;73.20;;;;;;5096664;28;20398;-66
2022/09/22 04:36:10;;;;;;;8.80;6.32;;;14.00;73.10;;;;;;5096633;28;20034;-68
2022/09/22 04:38:35;;;;;;;6.25;5.65;;;14.10;73.10;;;;;;5096929;28;20024;-67
2022/09/22 04:41:01;;;;;;;6.10;5.13;;;14.00;73.10;;;;;;5096069;28;20446;-68
2022/09/22 04:43:27;;;;;;;5.65;4.35;;;14.10;73.10;;;;;;5096019;28;20048;-67
2022/09/22 04:45:53;;;;;;;5.47;4.13;;;14.10;73.00;;;;;;5077584;28;20101;-68
2022/09/22 04:48:18;;;;;;;6.90;5.00;;;14.10;72.90;;;;;;5094984;28;20107;-67
2022/09/22 04:50:44;;;;;;;6.60;5.70;;;14.20;73.00;;;;;;5077528;28;20377;-74
2022/09/22 04:53:11;;;;;;;5.38;4.43;;;14.20;73.70;;;;;;5096405;28;20028;-75
2022/09/22 04:55:38;;;;;;;5.57;4.32;;;14.30;73.90;;;;;;5094789;28;20043;-75
2022/09/22 04:58:04;;;;;;;5.60;4.38;;;14.40;73.80;;;;;;5096031;28;20028;-74
2022/09/22 05:00:29;;;;;;;4.97;4.03;;;14.50;73.70;;;;;;5077629;28;20030;-76
2022/09/22 05:02:56;;;;;;;4.57;4.00;;;14.50;73.70;;;;;;5095325;28;20478;-77
2022/09/22 05:05:23;;;;;;;4.97;4.10;;;14.50;73.70;;;;;;5094670;28;20095;-77
2022/09/22 05:07:53;;;;;;;4.68;3.60;;;14.50;73.50;;;;;;5076956;28;20082;-78
2022/09/22 05:10:20;;;;;;;5.35;3.95;;;14.50;73.30;;;;;;5094722;28;20031;-77
2022/09/22 05:12:46;;;;;;;4.60;3.70;;;14.60;73.30;;;;;;5076676;28;20066;-76
2022/09/22 05:15:13;;;;;;;4.85;3.60;;;14.60;73.10;;;;;;5076531;28;20028;-77
2022/09/22 05:17:46;;;;;;;4.90;3.60;;;14.60;73.00;;;;;;5076309;28;20020;-77
2022/09/22 05:20:12;;;;;;;4.45;3.72;;;14.70;72.90;;;;;;5092295;28;20032;-78
2022/09/22 05:22:38;;;;;;;4.28;3.45;;;14.70;72.80;;;;;;5094650;28;20512;-79
2022/09/22 05:25:07;;;;;;;4.38;3.50;;;14.70;72.70;;;;;;5077416;28;20111;-79
2022/09/22 05:27:32;;;;;;;4.07;3.42;;;14.80;72.70;;;;;;5095190;28;20029;-79
2022/09/22 05:29:58;;;;;;;3.92;3.28;;;14.80;72.60;;;;;;5094686;28;20351;-79
2022/09/22 05:32:23;;;;;;;4.28;3.50;;;14.80;72.40;;;;;;5076465;28;20058;-77
2022/09/22 05:34:49;;;;;;;3.83;3.15;;;14.90;72.40;;;;;;5094842;28;20046;-78
2022/09/22 05:37:15;;;;;;;3.60;3.03;;;14.90;72.20;;;;;;5076823;28;20351;-77
2022/09/22 05:39:40;;;;;;;4.45;3.15;;;14.90;72.10;;;;;;5094950;28;20039;-75
2022/09/22 05:42:06;;;;;;;4.10;3.30;;;15.00;72.10;;;;;;5076300;28;20031;-78
2022/09/22 05:44:32;;;;;;;3.40;2.90;;;15.00;72.00;;;;;;5090734;28;20063;-75
2022/09/22 05:46:57;;;;;;;3.15;2.85;;;15.00;71.90;;;;;;5076561;28;20024;-78
2022/09/22 05:49:23;;;;;;;3.10;2.80;;;15.00;71.80;;;;;;5093996;28;20027;-75
2022/09/22 05:51:54;;;;;;;4.20;3.10;;;15.00;71.70;;;;;;5076699;28;20056;-78
2022/09/22 05:54:19;;;;;;;3.15;2.85;;;15.10;71.70;;;;;;5093811;28;20039;-78
2022/09/22 05:56:45;;;;;;;3.65;3.10;;;15.10;71.60;;;;;;5093481;28;20020;-81
2022/09/22 05:59:11;;;;;;;3.53;2.92;;;15.10;71.50;;;;;;5093471;28;20024;-77
2022/09/22 06:01:38;;;;;;;4.30;2.97;;;15.20;71.50;;;;;;5093081;28;20531;-78
2022/09/22 06:04:03;;;;;;;3.22;2.63;;;15.20;71.50;;;;;;5094190;28;20062;-77
2022/09/22 06:06:29;;;;;;;3.42;2.85;;;15.30;71.40;;;;;;5094328;28;20056;-78
2022/09/22 06:08:55;;;;;;;3.38;2.90;;;15.30;71.20;;;;;;5093145;28;20473;-78
2022/09/22 06:11:20;;;;;;;3.80;3.20;;;15.40;71.20;;;;;;5093109;28;20114;-75
2022/09/22 06:13:49;;;;;;;3.75;2.90;;;15.40;71.10;;;;;;5094135;28;20028;-77
2022/09/22 06:16:16;;;;;;;3.15;2.85;;;15.50;71.00;;;;;;5092371;28;20504;-77
2022/09/22 06:18:45;;;;;;;3.00;2.70;;;15.60;70.90;;;;;;5094061;28;20028;-75
2022/09/22 06:21:12;;;;;;;3.05;2.67;;;15.70;70.70;;;;;;5093863;28;20384;-78
2022/09/22 06:23:39;;;;;;;3.20;2.55;;;15.70;70.60;;;;;;5094166;28;20493;-79
2022/09/22 06:26:05;;;;;;;2.97;2.67;;;15.80;70.50;;;;;;5093699;28;20081;-77
2022/09/22 06:28:31;;;;;;;3.25;2.85;;;15.80;70.40;;;;;;5092536;28;20032;-77
2022/09/22 06:31:00;;;;;;;3.15;2.70;;;15.90;70.30;;;;;;5092562;28;20393;-77
2022/09/22 06:33:29;;;;;;;3.20;2.65;;;15.90;70.30;;;;;;5092756;28;20031;-79
2022/09/22 06:35:57;;;;;;;3.13;2.75;;;16.00;70.20;;;;;;5093106;28;20056;-78
2022/09/22 06:38:23;;;;;;;3.83;2.90;;;16.00;70.10;;;;;;5093458;28;20264;-85
2022/09/22 06:40:50;;;;;;;3.53;2.83;;;16.10;70.00;;;;;;5093111;28;20028;-84
2022/09/22 06:43:23;;;;;;;3.90;2.92;;;16.10;69.90;;;;;;5094903;28;20052;-86
2022/09/22 06:45:50;;;;;;;3.05;2.50;;;16.20;69.90;;;;;;5094590;28;20040;-78
2022/09/22 06:48:17;;;;;;;3.10;2.60;;;16.20;69.80;;;;;;5094760;28;20032;-84
2022/09/22 06:50:48;;;;;;;2.88;2.55;;;16.30;69.70;;;;;;5075738;28;20028;-77
2022/09/22 06:53:14;;;;;;;3.60;2.90;;;16.30;69.60;;;;;;5093625;28;20046;-77
2022/09/22 06:55:41;;;;;;;3.58;2.72;;;16.30;69.60;;;;;;5092820;28;20529;-80
2022/09/22 06:58:08;;;;;;;2.83;2.40;;;16.40;69.50;;;;;;5075321;28;20119;-80
2022/09/22 07:00:34;;;;;;;2.60;2.40;;;16.40;70.00;;;;;;5093502;28;20085;-81
2022/09/22 07:03:05;;;;;;;2.80;2.50;;;16.40;69.40;;;;;;5075409;28;20450;-77
2022/09/22 07:05:31;;;;;;;2.88;2.58;;;16.40;69.30;;;;;;5093389;28;20036;-76
2022/09/22 07:07:57;;;;;;;2.97;2.50;;;16.40;69.20;;;;;;5093568;28;20026;-77
2022/09/22 07:10:22;;;;;;;2.40;2.20;;;16.50;69.20;;;;;;5075040;28;20024;-77
2022/09/22 07:12:48;;;;;;;2.60;2.40;;;16.50;69.10;;;;;;5093395;28;20440;-79
2022/09/22 07:15:14;;;;;;;2.67;2.45;;;16.60;69.10;;;;;;5074663;28;20081;-78
2022/09/22 07:17:40;;;;;;;2.88;2.53;;;16.60;68.90;;;;;;5093967;28;20047;-80
2022/09/22 07:20:06;;;;;;;2.70;2.42;;;16.70;68.90;;;;;;5093496;28;20016;-80
2022/09/22 07:22:35;;;;;;;2.60;2.00;;;16.70;69.10;;;;;;5075181;28;20035;-83
2022/09/22 07:25:01;;;;;;;2.38;2.17;;;16.90;69.20;;;;;;5075588;28;20181;-81
2022/09/22 07:27:27;;;;;;;2.35;2.15;;;17.00;69.00;;;;;;5075348;28;20036;-80
2022/09/22 07:29:53;;;;;;;2.97;2.47;;;17.10;68.70;;;;;;5059743;28;20028;-83
2022/09/22 07:32:20;;;;;;;2.50;2.30;;;17.10;68.50;;;;;;5095169;28;20105;-81
2022/09/22 07:34:48;;;;;;;2.38;2.17;;;17.20;68.30;;;;;;5079748;28;20024;-81
2022/09/22 07:37:14;;;;;;;3.30;2.20;;;17.20;68.10;;;;;;5097826;28;20129;-81
2022/09/22 07:39:44;;;;;;;2.45;2.25;;;17.20;67.90;;;;;;5097857;28;20039;-80
2022/09/22 07:42:10;;;;;;;2.90;2.40;;;17.30;67.80;;;;;;5079833;28;20366;-81
2022/09/22 07:48:34;;;;;;;3.08;2.75;;;17.20;67.60;;;;;;5097557;28;20138;-81
2022/09/22 07:50:05;;;;;;;3.40;2.50;;;17.20;67.40;;;;;;5096437;28;20063;-82
2022/09/22 07:52:32;;;;;;;2.60;2.40;;;17.20;67.30;;;;;;5096835;28;20117;-82
2022/09/22 07:54:58;;;;;;;3.42;2.53;;;17.20;67.20;;;;;;5096263;28;20070;-81
2022/09/22 07:57:24;;;;;;;2.67;2.47;;;17.10;67.10;;;;;;5097596;28;20063;-81
2022/09/22 07:59:50;;;;;;;3.15;2.40;;;17.10;67.10;;;;;;5097444;28;20381;-81
2022/09/22 08:02:15;;;;;;;2.95;2.65;;;17.10;67.10;;;;;;5095852;28;20024;-81
2022/09/22 08:04:42;;;;;;;2.72;2.50;;;17.00;67.10;;;;;;5097340;28;20104;-80
2022/09/22 08:07:08;;;;;;;4.03;2.60;;;17.00;67.10;;;;;;5097086;28;20032;-82
2022/09/22 08:09:34;;;;;;;3.58;2.60;;;17.00;67.10;;;;;;5096045;28;20537;-85
2022/09/22 08:12:01;;;;;;;3.10;2.67;;;17.10;67.70;;;;;;5096876;28;20024;-81
2022/09/22 08:14:27;;;;;;;3.25;2.60;;;17.00;67.00;;;;;;5096491;28;20039;-80
2022/09/22 08:16:52;;;;;;;6.55;2.60;;;17.00;66.90;;;;;;5096860;28;20028;-82
2022/09/22 08:19:21;;;;;;;2.60;2.17;;;17.00;66.90;;;;;;5095815;28;20032;-81
2022/09/22 08:21:49;;;;;;;2.97;2.42;;;17.00;66.80;;;;;;5095825;28;20028;-80
2022/09/22 08:24:20;;;;;;;3.13;2.60;;;17.00;66.80;;;;;;5095655;28;20032;-82
2022/09/22 08:26:48;;;;;;;3.00;2.50;;;17.00;66.70;;;;;;5096881;28;20032;-80
2022/09/22 08:29:14;;;;;;;2.58;2.30;;;16.90;66.70;;;;;;5096761;28;20107;-82
2022/09/22 08:31:41;;;;;;;2.20;2.00;;;17.00;66.70;;;;;;5095492;28;20059;-82
2022/09/22 08:34:07;;;;;;;2.40;2.20;;;17.00;66.50;;;;;;5096624;28;20073;-81
2022/09/22 08:36:33;;;;;;;2.47;2.20;;;17.00;66.50;;;;;;5095892;28;20470;-83
2022/09/22 08:39:01;;;;;;;2.42;2.22;;;17.00;66.40;;;;;;5095531;28;20176;-81
2022/09/22 08:41:41;;;;;;;2.95;2.20;;;17.00;66.30;;;;;;5095450;28;20173;-80
2022/09/22 08:44:10;;;;;;;2.40;2.20;;;17.10;66.30;;;;;;5094672;28;20044;-81
2022/09/22 08:46:44;;;;;;;2.13;2.03;;;17.10;66.10;;;;;;5095315;28;20144;-82
2022/09/22 08:52:14;;;;;;;2.10;2.00;;;17.10;65.40;;;;;;5096541;28;20360;-81
2022/09/22 08:54:41;;;;;;;2.20;2.10;;;17.20;65.90;;;;;;5096388;28;20032;-82
2022/09/22 08:57:25;;;;;;;2.97;2.67;;;17.10;65.80;;;;;;5096384;28;20028;-82
2022/09/22 08:59:54;;;;;;;2.22;2.03;;;17.20;65.60;;;;;;5095141;28;20073;-81
2022/09/22 09:02:31;;;;;;;2.53;2.33;;;17.10;65.70;;;;;;5095983;28;20028;-80
2022/09/22 09:05:33;;;;;;;2.63;2.42;;;17.20;65.80;;;;;;5095992;28;20036;-81
2022/09/22 09:08:14;;;;;;;2.50;2.30;;;17.20;65.50;;;;;;5094905;28;20062;-80
2022/09/22 09:10:55;;;;;;;2.45;2.25;;;17.20;65.60;;;;;;5096329;28;20110;-81
2022/09/22 09:13:29;;;;;;;2.72;2.40;;;17.20;65.40;;;;;;5095873;28;20024;-82
2022/09/22 09:16:25;;;;;;;2.95;2.58;;;17.30;65.40;;;;;;5095974;28;20024;-79
2022/09/22 09:19:03;;;;;;;2.60;2.40;;;17.30;65.00;;;;;;5094534;28;20063;-81
2022/09/22 09:21:34;;;;;;;2.22;2.03;;;17.30;64.90;;;;;;5096012;28;20024;-81
2022/09/22 09:24:06;;;;;;;2.47;2.28;;;17.30;64.80;;;;;;5096182;28;20028;-80
2022/09/22 09:26:34;;;;;;;2.47;2.28;;;17.30;64.70;;;;;;5095204;28;20107;-80
2022/09/22 09:29:03;;;;;;;2.40;2.20;;;17.40;64.80;;;;;;5094263;28;20089;-80
2022/09/22 09:31:37;;;;;;;2.22;2.10;;;17.40;64.70;;;;;;5094428;28;20119;-82
2022/09/22 09:34:15;;;;;;;2.87;2.40;;;17.50;64.50;;;;;;5095687;28;20032;-81
2022/09/22 09:36:44;;;;;;;2.75;2.42;;;17.50;64.50;;;;;;5095812;28;20032;-81
2022/09/22 09:39:25;;;;;;;2.30;2.10;;;17.60;64.40;;;;;;5094247;28;20036;-82
2022/09/22 09:41:53;;;;;;;2.33;2.10;;;17.60;64.20;;;;;;5095690;28;20115;-81
2022/09/22 09:44:27;;;;;;;2.40;2.20;;;17.60;64.30;;;;;;5095737;28;20083;-80
2022/09/22 09:47:01;;;;;;;2.50;2.30;;;17.60;64.00;;;;;;5077534;28;20020;-82
2022/09/22 09:49:27;;;;;;;2.45;2.25;;;17.60;63.90;;;;;;5095599;28;20073;-81
2022/09/22 09:51:57;;;;;;;2.40;2.20;;;17.60;63.90;;;;;;5077437;28;20036;-82
2022/09/22 09:54:23;;;;;;;2.10;2.00;;;17.60;63.90;;;;;;5094520;28;20028;-83
2022/09/22 09:57:01;;;;;;;2.50;2.30;;;17.60;63.70;;;;;;5076851;28;20028;-81
2022/09/22 10:02:19;;;;;;;2.00;1.90;;;17.80;63.40;;;;;;5095303;28;20481;-82
2022/09/22 10:05:17;;;;;;;2.42;2.22;;;17.90;63.20;;;;;;5095286;28;20036;-80
2022/09/22 10:07:46;;;;;;;2.58;2.38;;;17.90;62.80;;;;;;5094545;28;20040;-81
2022/09/22 10:10:36;;;;;;;2.47;2.28;;;18.00;63.10;;;;;;5095102;28;20351;-83
2022/09/22 10:13:05;;;;;;;2.58;2.38;;;18.00;62.80;;;;;;5084983;28;20489;-79
2022/09/22 10:15:33;;;;;;;3.20;2.67;;;18.00;63.10;;;;;;5094692;28;20077;-83
2022/09/22 10:17:59;;;;;;;2.75;2.55;;;18.00;63.00;;;;;;5094724;28;20034;-81
2022/09/22 10:20:32;;;;;;;3.10;2.38;;;18.00;62.90;;;;;;5094220;28;20107;-81
2022/09/22 10:23:21;;;;;;;2.70;2.50;;;18.00;63.40;;;;;;5076677;28;20036;-81
2022/09/22 10:25:49;;;;;;;2.70;2.50;;;18.00;62.60;;;;;;5076081;28;20032;-83
2022/09/22 10:28:20;;;;;;;4.20;2.75;;;17.90;62.80;;;;;;5077262;28;20386;-83
2022/09/22 10:31:16;;;;;;;2.92;2.63;;;17.90;62.80;;;;;;5076453;28;20031;-82
2022/09/22 10:33:53;;;;;;;3.20;2.97;;;17.80;62.60;;;;;;5077578;28;20031;-82
2022/09/22 10:36:19;;;;;;;2.92;2.58;;;17.80;62.80;;;;;;5095245;28;20055;-82
2022/09/22 10:38:45;;;;;;;4.47;2.80;;;17.80;63.00;;;;;;5095678;28;20480;-81
2022/09/22 10:41:26;;;;;;;3.65;2.50;;;17.90;63.00;;;;;;5076806;28;20035;-81
2022/09/22 10:44:02;;;;;;;3.10;2.60;;;17.90;62.90;;;;;;5094776;28;20083;-83
2022/09/22 10:46:40;;;;;;;4.10;3.38;;;18.00;62.70;;;;;;5076786;28;20027;-81
2022/09/22 10:49:12;;;;;;;3.88;2.83;;;18.10;62.50;;;;;;5076929;28;20055;-80
2022/09/22 10:52:02;;;;;;;3.25;2.95;;;18.10;62.30;;;;;;5076732;28;20035;-80
2022/09/22 10:54:51;;;;;;;3.45;2.97;;;18.10;62.30;;;;;;5076473;28;20024;-82
2022/09/22 10:57:37;;;;;;;3.15;2.83;;;18.10;62.40;;;;;;5093743;28;20473;-81
2022/09/22 11:00:24;;;;;;;3.10;2.80;;;18.00;62.30;;;;;;5094623;28;20028;-80
2022/09/22 11:03:12;;;;;;;3.42;2.40;;;18.00;61.90;;;;;;5094128;28;20035;-82
2022/09/22 11:14:34;;;;;;;3.47;2.47;;;18.00;61.80;;;;;;5059611;28;20040;-81
2022/09/22 11:17:05;;;;;;;3.40;2.75;;;18.10;61.50;;;;;;5094452;28;20106;-81
2022/09/22 11:19:51;;;;;;;3.00;2.70;;;18.20;61.70;;;;;;5093982;28;20028;-79
2022/09/22 11:22:36;;;;;;;3.25;2.92;;;18.30;61.10;;;;;;5094211;28;20024;-82
2022/09/22 11:25:07;;;;;;;2.80;2.50;;;18.30;61.20;;;;;;5076018;28;20047;-79
2022/09/22 11:28:08;;;;;;;2.67;2.45;;;18.30;61.10;;;;;;5093983;28;20032;-81
2022/09/22 11:30:45;;;;;;;3.83;2.85;;;18.30;60.50;;;;;;5071056;28;20094;-79
2022/09/22 11:33:33;;;;;;;2.60;2.40;;;18.20;60.70;;;;;;5094408;28;20081;-81
2022/09/22 11:36:01;;;;;;;2.60;2.40;;;18.20;60.60;;;;;;5094457;28;20090;-82
2022/09/22 11:39:02;;;;;;;2.80;2.60;;;18.10;60.90;;;;;;5094064;28;20032;-82
2022/09/22 11:41:29;;;;;;;2.45;2.25;;;18.10;60.60;;;;;;4992581;28;20058;-83
2022/09/22 11:44:20;;;;;;;2.70;2.50;;;18.00;61.00;;;;;;5065250;28;20097;-82
2022/09/22 11:47:04;;;;;;;3.35;2.22;;;18.00;61.60;;;;;;5092911;28;20077;-81
2022/09/22 11:49:48;;;;;;;2.65;2.45;;;18.00;60.80;;;;;;5092952;28;20030;-80
2022/09/22 11:52:26;;;;;;;2.65;2.45;;;18.00;61.10;;;;;;5094299;28;20036;-81
2022/09/22 11:55:14;;;;;;;2.83;2.47;;;18.00;61.00;;;;;;5093765;28;20062;-84
2022/09/22 11:57:44;;;;;;;2.63;2.42;;;18.00;61.10;;;;;;5092255;28;20024;-80
2022/09/22 12:00:17;;;;;;;2.67;2.33;;;18.00;61.10;;;;;;5092801;28;20020;-82
2022/09/22 12:03:10;;;;;;;2.50;2.30;;;18.10;61.00;;;;;;5093554;28;20063;-84
2022/09/22 12:05:45;;;;;;;2.50;2.30;;;18.10;60.70;;;;;;5093776;28;20114;-80
2022/09/22 12:08:32;;;;;;;2.53;2.33;;;18.20;60.90;;;;;;5092696;28;20079;-82
2022/09/22 12:10:59;;;;;;;2.30;2.10;;;18.20;60.50;;;;;;5093255;28;20382;-81
2022/09/22 12:13:27;;;;;;;2.83;2.47;;;18.40;60.60;;;;;;5093904;28;20099;-81
2022/09/22 12:16:30;;;;;;;2.63;2.42;;;18.40;60.30;;;;;;5093650;28;20024;-82
2022/09/22 12:19:02;;;;;;;2.60;2.40;;;18.50;59.70;;;;;;5095961;28;20065;-80
2022/09/22 12:21:33;;;;;;;3.10;2.78;;;18.50;60.00;;;;;;5097126;28;20088;-81
2022/09/22 12:24:02;;;;;;;3.08;2.70;;;18.50;59.80;;;;;;5097415;28;20025;-81
2022/09/22 12:26:30;;;;;;;2.53;2.33;;;18.50;59.70;;;;;;5097436;28;20111;-81
2022/09/22 12:28:57;;;;;;;2.58;2.38;;;18.40;59.50;;;;;;5096782;28;20024;-81
2022/09/22 12:31:34;;;;;;;2.58;2.38;;;18.40;59.60;;;;;;5097252;28;20107;-82
2022/09/22 12:34:02;;;;;;;3.15;2.42;;;18.40;59.50;;;;;;5097408;28;20032;-85
2022/09/22 12:36:31;;;;;;;2.30;2.10;;;18.30;59.50;;;;;;5097305;28;20024;-82
2022/09/22 12:39:10;;;;;;;2.03;1.92;;;18.30;59.40;;;;;;5096852;28;20095;-81
2022/09/22 12:41:51;;;;;;;2.20;2.00;;;18.30;59.20;;;;;;5096991;28;20056;-80
2022/09/22 12:44:31;;;;;;;2.13;2.03;;;18.30;59.20;;;;;;5097206;28;20040;-81
2022/09/22 12:47:01;;;;;;;2.10;1.90;;;18.20;59.20;;;;;;5079215;28;20081;-81
2022/09/22 12:49:27;;;;;;;2.15;1.95;;;18.20;59.30;;;;;;5078821;28;20035;-82
2022/09/22 12:51:53;;;;;;;2.10;2.00;;;18.10;59.30;;;;;;5079211;28;20055;-80
2022/09/22 12:54:21;;;;;;;2.10;2.00;;;18.20;59.50;;;;;;5078806;28;20450;-81
2022/09/22 12:57:05;;;;;;;2.20;2.00;;;18.10;59.60;;;;;;5096499;28;20032;-82
2022/09/22 12:59:37;;;;;;;2.40;2.20;;;18.10;59.40;;;;;;5097311;28;20070;-80
2022/09/22 13:02:25;;;;;;;2.25;2.10;;;18.00;59.60;;;;;;5096483;28;20373;-80
2022/09/22 13:04:54;;;;;;;2.30;2.10;;;18.10;59.40;;;;;;5078922;28;20027;-83
2022/09/22 13:07:36;;;;;;;2.50;2.30;;;18.10;59.50;;;;;;5096761;28;20470;-82
2022/09/22 13:10:31;;;;;;;1.90;1.80;;;18.20;59.30;;;;;;5096629;28;20020;-80
2022/09/22 13:13:04;;;;;;;2.30;2.10;;;18.20;58.90;;;;;;5056960;28;20028;-83
2022/09/22 13:15:48;;;;;;;2.15;2.00;;;18.40;59.30;;;;;;5096710;28;20035;-83
2022/09/22 13:18:32;;;;;;;2.20;2.00;;;18.40;59.00;;;;;;5078584;28;20462;-82
2022/09/22 13:21:02;;;;;;;2.30;2.10;;;18.50;58.90;;;;;;5096893;28;20020;-81
2022/09/22 13:23:29;;;;;;;2.80;2.30;;;18.60;59.00;;;;;;5078612;28;20077;-81
2022/09/22 13:26:05;;;;;;;2.80;2.45;;;18.70;58.80;;;;;;5078478;28;20036;-81
2022/09/22 13:28:30;;;;;;;2.50;2.30;;;18.80;58.50;;;;;;5097065;28;20032;-82